Time,TemperatureF,DewpointF,PressureIn,WindDirection,WindDirectionDegrees,WindSpeedMPH,WindSpeedGustMPH,Humidity,HourlyPrecipIn,Conditions,Clouds,dailyrainin,SolarRadiationWatts/m^2,SoftwareType,DateUTC
2013-02-24 00:01:00,24.0,22.0,-100.00,North,353,3.0,7.0,92,0.00,,,0.08,0.000000,,2013-02-24 06:01:00,
2013-02-24 00:10:00,20.0,18.0,-100.00,NNW,332,1.0,4.0,93,0.00,,,0.08,0.000000,,2013-02-24 06:10:00,
2013-02-24 00:32:00,20.0,18.0,-100.00,NNW,332,1.0,4.0,93,0.00,,,0.08,0.000000,,2013-02-24 06:32:00,
2013-02-24 00:42:00,20.0,18.0,-100.00,NNW,332,1.0,4.0,93,0.00,,,0.08,0.000000,,2013-02-24 06:42:00,
2013-02-24 00:52:00,20.0,18.0,-100.00,NNW,332,1.0,4.0,93,0.00,,,0.08,0.000000,,2013-02-24 06:52:00,
2013-02-24 01:01:00,20.0,18.0,-100.00,NNW,332,1.0,4.0,93,0.00,,,0.08,0.000000,,2013-02-24 07:01:00,
2013-02-24 01:10:00,19.0,18.0,-100.00,NW,307,1.0,2.0,94,0.00,,,0.08,0.000000,,2013-02-24 07:10:00,
2013-02-24 01:32:00,19.0,18.0,-100.00,NW,307,1.0,2.0,94,0.00,,,0.08,0.000000,,2013-02-24 07:32:00,
2013-02-24 01:42:00,19.0,18.0,-100.00,NW,307,1.0,2.0,94,0.00,,,0.08,0.000000,,2013-02-24 07:42:00,
2013-02-24 01:52:00,19.0,18.0,-100.00,NW,307,1.0,2.0,94,0.00,,,0.08,0.000000,,2013-02-24 07:52:00,
2013-02-24 02:01:00,19.0,18.0,-100.00,NW,307,1.0,2.0,94,0.00,,,0.08,0.000000,,2013-02-24 08:01:00,
2013-02-24 02:10:00,20.0,19.0,-100.00,WNW,291,0.0,2.0,95,0.00,,,0.08,0.000000,,2013-02-24 08:10:00,
2013-02-24 02:32:00,20.0,19.0,-100.00,WNW,291,0.0,2.0,95,0.00,,,0.08,0.000000,,2013-02-24 08:32:00,
2013-02-24 02:42:00,20.0,19.0,-100.00,WNW,291,0.0,2.0,95,0.00,,,0.08,0.000000,,2013-02-24 08:42:00,
2013-02-24 02:54:00,20.0,19.0,-100.00,WNW,291,0.0,2.0,95,0.00,,,0.08,0.000000,,2013-02-24 08:54:00,
2013-02-24 03:01:00,20.0,19.0,-100.00,WNW,291,0.0,2.0,95,0.00,,,0.08,0.000000,,2013-02-24 09:01:00,
2013-02-24 03:10:00,20.0,19.0,-100.00,West,260,1.0,3.0,95,0.00,,,0.08,0.000000,,2013-02-24 09:10:00,
2013-02-24 03:32:00,20.0,19.0,-100.00,West,260,1.0,3.0,95,0.00,,,0.08,0.000000,,2013-02-24 09:32:00,
2013-02-24 03:42:00,20.0,19.0,-100.00,West,260,1.0,3.0,95,0.00,,,0.08,0.000000,,2013-02-24 09:42:00,
2013-02-24 03:52:00,20.0,19.0,-100.00,West,260,1.0,3.0,95,0.00,,,0.08,0.000000,,2013-02-24 09:52:00,
2013-02-24 04:01:00,20.0,19.0,-100.00,West,260,1.0,3.0,95,0.00,,,0.08,0.000000,,2013-02-24 10:01:00,
2013-02-24 04:10:00,20.0,19.0,-100.00,NNW,337,2.0,3.0,94,0.00,,,0.08,0.000000,,2013-02-24 10:10:00,
2013-02-24 04:32:00,20.0,19.0,-100.00,NNW,337,2.0,3.0,94,0.00,,,0.08,0.000000,,2013-02-24 10:32:00,
2013-02-24 04:42:00,20.0,19.0,-100.00,NNW,337,2.0,3.0,94,0.00,,,0.08,0.000000,,2013-02-24 10:42:00,
2013-02-24 04:52:00,20.0,19.0,-100.00,NNW,337,2.0,3.0,94,0.00,,,0.08,0.000000,,2013-02-24 10:52:00,
2013-02-24 05:01:00,20.0,19.0,-100.00,NNW,337,2.0,3.0,94,0.00,,,0.08,0.000000,,2013-02-24 11:01:00,
2013-02-24 05:10:00,21.0,20.0,-100.00,North,359,3.0,5.0,94,0.00,,,0.08,0.000000,,2013-02-24 11:10:00,
2013-02-24 05:32:00,21.0,20.0,-100.00,North,359,3.0,5.0,94,0.00,,,0.08,0.000000,,2013-02-24 11:32:00,
2013-02-24 05:42:00,21.0,20.0,-100.00,North,359,3.0,5.0,94,0.00,,,0.08,0.000000,,2013-02-24 11:42:00,
2013-02-24 05:53:00,21.0,20.0,-100.00,North,359,3.0,5.0,94,0.00,,,0.08,0.000000,,2013-02-24 11:53:00,
2013-02-24 06:01:00,21.0,20.0,-100.00,North,359,3.0,5.0,94,0.00,,,0.08,0.000000,,2013-02-24 12:01:00,
2013-02-24 06:10:00,20.0,18.0,-100.00,NW,320,2.0,6.0,93,0.00,,,0.08,0.000000,,2013-02-24 12:10:00,
2013-02-24 06:33:00,20.0,18.0,-100.00,NW,320,2.0,6.0,93,0.00,,,0.08,0.000000,,2013-02-24 12:33:00,
2013-02-24 06:46:00,20.0,18.0,-100.00,NW,320,2.0,6.0,93,0.00,,,0.08,0.000000,,2013-02-24 12:46:00,
2013-02-24 07:10:00,20.0,18.0,-100.00,North,358,1.0,4.0,93,0.00,,,0.08,0.000000,,2013-02-24 13:10:00,
2013-02-24 07:35:00,20.0,18.0,-100.00,North,358,1.0,4.0,93,0.00,,,0.08,0.000000,,2013-02-24 13:35:00,
2013-02-24 07:45:00,20.0,18.0,-100.00,North,358,1.0,4.0,93,0.00,,,0.08,0.000000,,2013-02-24 13:45:00,
2013-02-24 07:55:00,20.0,18.0,-100.00,North,358,1.0,4.0,93,0.00,,,0.08,0.000000,,2013-02-24 13:55:00,
2013-02-24 08:04:00,20.0,18.0,-100.00,North,358,1.0,4.0,93,0.00,,,0.08,0.000000,,2013-02-24 14:04:00,
2013-02-24 08:10:00,23.0,21.0,-100.00,ENE,75,1.0,2.0,92,0.00,,,0.08,6.000000,,2013-02-24 14:10:00,
2013-02-24 08:34:00,23.0,21.0,-100.00,ENE,75,1.0,2.0,92,0.00,,,0.08,6.000000,,2013-02-24 14:34:00,
2013-02-24 08:45:00,23.0,21.0,-100.00,ENE,75,1.0,2.0,92,0.00,,,0.08,6.000000,,2013-02-24 14:45:00,
2013-02-24 08:54:00,23.0,21.0,-100.00,ENE,75,1.0,2.0,92,0.00,,,0.08,6.000000,,2013-02-24 14:54:00,
2013-02-24 09:03:00,23.0,21.0,-100.00,ENE,75,1.0,2.0,92,0.00,,,0.08,6.000000,,2013-02-24 15:03:00,
2013-02-24 09:10:00,27.0,23.0,-100.00,East,90,2.0,4.0,84,0.00,,,0.08,18.000000,,2013-02-24 15:10:00,
2013-02-24 09:32:00,27.0,23.0,-100.00,East,90,2.0,4.0,84,0.00,,,0.08,18.000000,,2013-02-24 15:32:00,
2013-02-24 09:42:00,27.0,23.0,-100.00,East,90,2.0,4.0,84,0.00,,,0.08,18.000000,,2013-02-24 15:42:00,
2013-02-24 09:53:00,27.0,23.0,-100.00,East,90,2.0,4.0,84,0.00,,,0.08,18.000000,,2013-02-24 15:53:00,
2013-02-24 10:01:00,27.0,23.0,-100.00,East,90,2.0,4.0,84,0.00,,,0.08,18.000000,,2013-02-24 16:01:00,
2013-02-24 10:10:00,32.0,24.0,-100.00,NE,44,1.0,2.0,71,0.00,,,0.07,32.000000,,2013-02-24 16:10:00,
2013-02-24 10:32:00,32.0,24.0,-100.00,NE,44,1.0,2.0,71,0.00,,,0.07,32.000000,,2013-02-24 16:32:00,
2013-02-24 10:42:00,32.0,24.0,-100.00,NE,44,1.0,2.0,71,0.00,,,0.07,32.000000,,2013-02-24 16:42:00,
2013-02-24 10:52:00,32.0,24.0,-100.00,NE,44,1.0,2.0,71,0.00,,,0.07,32.000000,,2013-02-24 16:52:00,
2013-02-24 11:01:00,32.0,24.0,-100.00,NE,44,1.0,2.0,71,0.00,,,0.07,32.000000,,2013-02-24 17:01:00,
2013-02-24 11:10:00,31.0,20.0,-100.00,North,9,3.0,7.0,63,0.00,,,0.06,40.000000,,2013-02-24 17:10:00,
2013-02-24 11:32:00,31.0,20.0,-100.00,North,9,3.0,7.0,63,0.00,,,0.06,40.000000,,2013-02-24 17:32:00,
2013-02-24 11:42:00,31.0,20.0,-100.00,North,9,3.0,7.0,63,0.00,,,0.06,40.000000,,2013-02-24 17:42:00,
2013-02-24 11:53:00,31.0,20.0,-100.00,North,9,3.0,7.0,63,0.00,,,0.06,40.000000,,2013-02-24 17:53:00,
2013-02-24 12:01:00,31.0,20.0,-100.00,North,9,3.0,7.0,63,0.00,,,0.06,40.000000,,2013-02-24 18:01:00,
2013-02-24 12:10:00,33.0,19.0,-100.00,North,355,2.0,7.0,57,0.00,,,0.06,102.000000,,2013-02-24 18:10:00,
2013-02-24 12:32:00,33.0,19.0,-100.00,North,355,2.0,7.0,57,0.00,,,0.06,102.000000,,2013-02-24 18:32:00,
2013-02-24 12:42:00,33.0,19.0,-100.00,North,355,2.0,7.0,57,0.00,,,0.06,102.000000,,2013-02-24 18:42:00,
2013-02-24 12:52:00,33.0,19.0,-100.00,North,355,2.0,7.0,57,0.00,,,0.06,102.000000,,2013-02-24 18:52:00,
2013-02-24 13:01:00,33.0,19.0,-100.00,North,355,2.0,7.0,57,0.00,,,0.06,102.000000,,2013-02-24 19:01:00,
2013-02-24 13:10:00,32.0,22.0,-100.00,West,262,3.0,6.0,66,0.00,,,0.06,144.000000,,2013-02-24 19:10:00,
2013-02-24 13:32:00,32.0,22.0,-100.00,West,262,3.0,6.0,66,0.00,,,0.06,144.000000,,2013-02-24 19:32:00,
2013-02-24 13:42:00,32.0,22.0,-100.00,West,262,3.0,6.0,66,0.00,,,0.06,144.000000,,2013-02-24 19:42:00,
2013-02-24 13:52:00,32.0,22.0,-100.00,West,262,3.0,6.0,66,0.00,,,0.06,144.000000,,2013-02-24 19:52:00,
2013-02-24 14:02:00,32.0,22.0,-100.00,West,262,3.0,6.0,66,0.00,,,0.06,144.000000,,2013-02-24 20:02:00,
2013-02-24 14:10:00,29.0,19.0,-100.00,West,272,4.0,7.0,67,0.00,,,0.05,120.000000,,2013-02-24 20:10:00,
2013-02-24 14:32:00,29.0,19.0,-100.00,West,272,4.0,7.0,67,0.00,,,0.05,120.000000,,2013-02-24 20:32:00,
2013-02-24 14:42:00,29.0,19.0,-100.00,West,272,4.0,7.0,67,0.00,,,0.05,120.000000,,2013-02-24 20:42:00,
2013-02-24 14:52:00,29.0,19.0,-100.00,West,272,4.0,7.0,67,0.00,,,0.05,120.000000,,2013-02-24 20:52:00,
2013-02-24 15:01:00,29.0,19.0,-100.00,West,272,4.0,7.0,67,0.00,,,0.05,120.000000,,2013-02-24 21:01:00,
2013-02-24 15:10:00,30.0,21.0,-100.00,NW,317,2.0,7.0,68,0.00,,,0.05,91.000000,,2013-02-24 21:10:00,
2013-02-24 15:42:00,30.0,21.0,-100.00,NW,317,2.0,7.0,68,0.00,,,0.05,91.000000,,2013-02-24 21:42:00,
2013-02-24 15:52:00,30.0,21.0,-100.00,NW,317,2.0,7.0,68,0.00,,,0.05,91.000000,,2013-02-24 21:52:00,
2013-02-24 16:01:00,30.0,21.0,-100.00,NW,317,2.0,7.0,68,0.00,,,0.05,91.000000,,2013-02-24 22:01:00,
2013-02-24 16:10:00,28.0,20.0,-100.00,West,259,2.0,5.0,70,0.00,,,0.03,60.000000,,2013-02-24 22:10:00,
2013-02-24 16:42:00,28.0,20.0,-100.00,West,259,2.0,5.0,70,0.00,,,0.03,60.000000,,2013-02-24 22:42:00,
2013-02-24 16:52:00,28.0,20.0,-100.00,West,259,2.0,5.0,70,0.00,,,0.03,60.000000,,2013-02-24 22:52:00,
2013-02-24 17:02:00,28.0,20.0,-100.00,West,259,2.0,5.0,70,0.00,,,0.03,60.000000,,2013-02-24 23:02:00,
2013-02-24 17:10:00,28.0,21.0,-100.00,ENE,60,1.0,5.0,76,0.00,,,0.03,23.000000,,2013-02-24 23:10:00,
2013-02-24 17:32:00,28.0,21.0,-100.00,ENE,60,1.0,5.0,76,0.00,,,0.03,23.000000,,2013-02-24 23:32:00,
2013-02-24 17:42:00,28.0,21.0,-100.00,ENE,60,1.0,5.0,76,0.00,,,0.03,23.000000,,2013-02-24 23:42:00,
2013-02-24 17:52:00,28.0,21.0,-100.00,ENE,60,1.0,5.0,76,0.00,,,0.03,23.000000,,2013-02-24 23:52:00,
2013-02-24 18:01:00,28.0,21.0,-100.00,ENE,60,1.0,5.0,76,0.00,,,0.03,23.000000,,2013-02-25 00:01:00,
2013-02-24 18:10:00,26.0,22.0,-100.00,NNE,26,1.0,2.0,84,0.00,,,0.03,4.000000,,2013-02-25 00:10:00,
2013-02-24 18:42:00,26.0,22.0,-100.00,NNE,26,1.0,2.0,84,0.00,,,0.03,4.000000,,2013-02-25 00:42:00,
2013-02-24 18:52:00,26.0,22.0,-100.00,NNE,26,1.0,2.0,84,0.00,,,0.03,4.000000,,2013-02-25 00:52:00,
2013-02-24 19:01:00,26.0,22.0,-100.00,NNE,26,1.0,2.0,84,0.00,,,0.03,4.000000,,2013-02-25 01:01:00,
2013-02-24 19:10:00,25.0,23.0,-100.00,SSE,158,2.0,5.0,91,0.00,,,0.02,0.000000,,2013-02-25 01:10:00,
2013-02-24 19:42:00,25.0,23.0,-100.00,SSE,158,2.0,5.0,91,0.00,,,0.02,0.000000,,2013-02-25 01:42:00,
2013-02-24 19:52:00,25.0,23.0,-100.00,SSE,158,2.0,5.0,91,0.00,,,0.02,0.000000,,2013-02-25 01:52:00,
2013-02-24 20:01:00,25.0,23.0,-100.00,SSE,158,2.0,5.0,91,0.00,,,0.02,0.000000,,2013-02-25 02:01:00,
2013-02-24 20:10:00,25.0,23.0,-100.00,SE,124,1.0,4.0,91,0.00,,,0.02,0.000000,,2013-02-25 02:10:00,
2013-02-24 20:42:00,25.0,23.0,-100.00,SE,124,1.0,4.0,91,0.00,,,0.02,0.000000,,2013-02-25 02:42:00,
2013-02-24 20:52:00,25.0,23.0,-100.00,SE,124,1.0,4.0,91,0.00,,,0.02,0.000000,,2013-02-25 02:52:00,
2013-02-24 21:01:00,25.0,23.0,-100.00,SE,124,1.0,4.0,91,0.00,,,0.02,0.000000,,2013-02-25 03:01:00,
2013-02-24 21:10:00,24.0,22.0,-100.00,SSE,152,2.0,3.0,92,0.00,,,0.01,0.000000,,2013-02-25 03:10:00,
2013-02-24 21:32:00,24.0,22.0,-100.00,SSE,152,2.0,3.0,92,0.00,,,0.01,0.000000,,2013-02-25 03:32:00,
2013-02-24 21:42:00,24.0,22.0,-100.00,SSE,152,2.0,3.0,92,0.00,,,0.01,0.000000,,2013-02-25 03:42:00,
2013-02-24 21:52:00,24.0,22.0,-100.00,SSE,152,2.0,3.0,92,0.00,,,0.01,0.000000,,2013-02-25 03:52:00,
2013-02-24 22:01:00,24.0,22.0,-100.00,SSE,152,2.0,3.0,92,0.00,,,0.01,0.000000,,2013-02-25 04:01:00,
2013-02-24 22:10:00,24.0,22.0,-100.00,East,83,1.0,3.0,93,0.00,,,0.00,0.000000,,2013-02-25 04:10:00,
2013-02-24 22:32:00,24.0,22.0,-100.00,East,83,1.0,3.0,93,0.00,,,0.00,0.000000,,2013-02-25 04:32:00,
2013-02-24 22:42:00,24.0,22.0,-100.00,East,83,1.0,3.0,93,0.00,,,0.00,0.000000,,2013-02-25 04:42:00,
2013-02-24 22:52:00,24.0,22.0,-100.00,East,83,1.0,3.0,93,0.00,,,0.00,0.000000,,2013-02-25 04:52:00,
2013-02-24 23:01:00,24.0,22.0,-100.00,East,83,1.0,3.0,93,0.00,,,0.00,0.000000,,2013-02-25 05:01:00,
2013-02-24 23:10:00,22.0,21.0,-100.00,SSW,194,0.0,1.0,94,0.00,,,0.00,0.000000,,2013-02-25 05:10:00,
2013-02-24 23:32:00,22.0,21.0,-100.00,SSW,194,0.0,1.0,94,0.00,,,0.00,0.000000,,2013-02-25 05:32:00,
2013-02-24 23:42:00,22.0,21.0,-100.00,SSW,194,0.0,1.0,94,0.00,,,0.00,0.000000,,2013-02-25 05:42:00,
2013-02-24 23:52:00,22.0,21.0,-100.00,SSW,194,0.0,1.0,94,0.00,,,0.00,0.000000,,2013-02-25 05:52:00,